Time;durP1;ratioP1;P1;durP2;ratioP2;P2;SDS_P1;SDS_P2;PMS_P1;PMS_P2;Temp;Humidity;BMP_temperature;BMP_pressure;BME280_temperature;BME280_humidity;BME280_pressure;Samples;Min_cycle;Max_cycle;Signal;HPM_P1;HPM_P2
2023/09/08 00:02:20;;;;;;;6.00;5.50;;;17.30;98.20;;;;;;5085393;28;20626;-71
2023/09/08 00:04:47;;;;;;;7.43;6.57;;;17.30;98.10;;;;;;5085419;28;21206;-71
2023/09/08 00:07:13;;;;;;;6.63;5.97;;;17.20;98.20;;;;;;5086108;28;20617;-71
2023/09/08 00:09:43;;;;;;;7.90;5.63;;;17.20;98.10;;;;;;5085034;28;20622;-71
2023/09/08 00:12:11;;;;;;;6.50;5.80;;;17.20;98.10;;;;;;5085744;28;20621;-72
2023/09/08 00:14:38;;;;;;;6.13;5.37;;;17.30;97.90;;;;;;5084747;28;20721;-72
2023/09/08 00:17:05;;;;;;;5.97;5.37;;;17.20;98.10;;;;;;5085951;28;20667;-71
2023/09/08 00:19:34;;;;;;;6.07;5.30;;;17.30;98.50;;;;;;5084719;28;21215;-71
2023/09/08 00:22:02;;;;;;;7.13;6.13;;;17.20;98.90;;;;;;5086305;28;20634;-71
2023/09/08 00:24:29;;;;;;;6.50;5.07;;;17.10;98.40;;;;;;5085017;28;20632;-71
2023/09/08 00:26:55;;;;;;;5.70;5.10;;;17.10;98.80;;;;;;5085263;28;20994;-71
2023/09/08 00:29:23;;;;;;;5.87;5.27;;;17.10;99.00;;;;;;5084772;28;20631;-72
2023/09/08 00:31:50;;;;;;;6.30;5.63;;;17.00;98.90;;;;;;5085367;28;20630;-72
2023/09/08 00:34:17;;;;;;;7.13;5.57;;;17.00;99.20;;;;;;5086880;28;20621;-72
2023/09/08 00:36:44;;;;;;;9.70;6.20;;;17.00;99.00;;;;;;5085218;28;20656;-71
2023/09/08 00:39:10;;;;;;;6.90;5.73;;;17.00;99.00;;;;;;5084692;28;20660;-71
2023/09/08 00:41:37;;;;;;;8.30;5.90;;;16.90;99.30;;;;;;5084982;28;20636;-71
2023/09/08 00:44:04;;;;;;;6.70;4.83;;;16.90;99.40;;;;;;5085286;28;20623;-71
2023/09/08 00:46:32;;;;;;;7.43;5.27;;;16.90;99.50;;;;;;5085253;28;20636;-71
2023/09/08 00:48:59;;;;;;;7.87;5.33;;;16.90;99.90;;;;;;5085215;28;20637;-72
2023/09/08 00:51:27;;;;;;;6.67;5.43;;;16.80;99.90;;;;;;5084072;28;20628;-71
2023/09/08 00:53:54;;;;;;;8.70;5.50;;;16.90;99.80;;;;;;5085248;28;20628;-71
2023/09/08 00:56:21;;;;;;;6.47;5.50;;;16.90;99.90;;;;;;5084714;28;20653;-71
2023/09/08 00:58:48;;;;;;;8.00;5.53;;;16.90;99.80;;;;;;5085195;28;20627;-71
2023/09/08 01:01:17;;;;;;;5.20;4.77;;;16.90;99.90;;;;;;5084382;28;20633;-71
2023/09/08 01:03:45;;;;;;;7.47;5.40;;;16.80;99.90;;;;;;5087401;28;21493;-71
2023/09/08 01:06:13;;;;;;;5.47;4.77;;;16.80;99.90;;;;;;5089392;28;20637;-72
2023/09/08 01:08:40;;;;;;;6.10;5.53;;;16.90;99.60;;;;;;5088264;28;20631;-71
2023/09/08 01:11:08;;;;;;;7.70;5.50;;;16.80;99.90;;;;;;5087121;28;20628;-71
2023/09/08 01:13:36;;;;;;;6.60;5.30;;;16.80;99.90;;;;;;5088682;28;20749;-71
2023/09/08 01:16:03;;;;;;;5.97;5.37;;;16.70;99.80;;;;;;5087286;28;20780;-71
2023/09/08 01:18:30;;;;;;;5.27;4.87;;;16.70;99.50;;;;;;5089138;28;20668;-71
2023/09/08 01:21:14;;;;;;;3.70;3.40;;;16.70;99.70;;;;;;5088029;28;20635;-72
2023/09/08 01:23:57;;;;;;;6.30;5.10;;;16.60;99.90;;;;;;5088833;28;20621;-71
2023/09/08 01:26:30;;;;;;;6.33;5.60;;;16.40;99.90;;;;;;5088198;28;20624;-72
2023/09/08 01:29:00;;;;;;;6.23;5.63;;;16.50;99.90;;;;;;5088707;28;21921;-71
2023/09/08 01:31:28;;;;;;;7.23;5.53;;;16.50;99.90;;;;;;5087294;28;20633;-71
2023/09/08 01:33:56;;;;;;;6.43;5.70;;;16.50;99.90;;;;;;5088012;28;20778;-71
2023/09/08 01:36:24;;;;;;;6.53;5.67;;;16.60;99.90;;;;;;5088005;28;20711;-71
2023/09/08 01:38:51;;;;;;;6.47;5.23;;;16.60;99.90;;;;;;5088679;28;21479;-71
2023/09/08 01:41:19;;;;;;;7.57;5.63;;;16.50;99.90;;;;;;5087854;28;20638;-71
2023/09/08 01:43:48;;;;;;;6.60;6.00;;;16.50;99.90;;;;;;5087659;28;21204;-71
2023/09/08 01:46:16;;;;;;;7.20;5.03;;;16.40;99.90;;;;;;5088316;28;20637;-71
2023/09/08 01:48:43;;;;;;;5.23;4.60;;;16.40;99.90;;;;;;5087973;28;20814;-71
2023/09/08 01:51:10;;;;;;;6.33;5.60;;;16.30;99.90;;;;;;5086852;28;20640;-71
2023/09/08 01:53:37;;;;;;;6.33;5.20;;;16.30;99.90;;;;;;5087401;28;21436;-71
2023/09/08 01:56:04;;;;;;;6.40;5.70;;;16.20;99.90;;;;;;5087842;28;21250;-71
2023/09/08 01:58:33;;;;;;;7.60;5.60;;;16.20;99.90;;;;;;5087734;28;20627;-71
2023/09/08 02:01:05;;;;;;;5.73;5.13;;;16.10;99.90;;;;;;5086437;28;20867;-71
2023/09/08 02:03:32;;;;;;;6.00;5.50;;;16.10;99.90;;;;;;5087697;28;20627;-71
2023/09/08 02:05:59;;;;;;;6.27;5.67;;;16.00;99.90;;;;;;5088435;27;20631;-71
2023/09/08 02:08:25;;;;;;;5.57;4.87;;;15.90;99.90;;;;;;5087104;28;20643;-72
2023/09/08 02:10:52;;;;;;;5.83;5.33;;;15.80;99.90;;;;;;5087687;28;21714;-71
2023/09/08 02:13:20;;;;;;;6.87;5.20;;;15.80;99.90;;;;;;5086825;28;20632;-71
2023/09/08 02:15:47;;;;;;;6.43;5.40;;;15.70;99.90;;;;;;5087808;28;21211;-71
2023/09/08 02:18:16;;;;;;;5.40;4.80;;;15.70;99.90;;;;;;5087147;27;20632;-71
2023/09/08 02:20:44;;;;;;;5.10;4.57;;;15.60;99.90;;;;;;5087252;28;20636;-71
2023/09/08 02:23:11;;;;;;;5.43;4.93;;;15.70;99.90;;;;;;5087698;28;21121;-71
2023/09/08 02:25:39;;;;;;;5.63;4.70;;;15.70;99.90;;;;;;5087454;28;20724;-71
2023/09/08 02:28:07;;;;;;;5.23;4.73;;;15.70;99.90;;;;;;5086686;28;21080;-71
2023/09/08 02:30:35;;;;;;;4.97;4.27;;;15.80;99.90;;;;;;5086416;28;20638;-71
2023/09/08 02:33:03;;;;;;;5.27;4.77;;;15.80;99.90;;;;;;5087183;28;20628;-71
2023/09/08 02:35:37;;;;;;;7.90;6.00;;;15.90;99.90;;;;;;5086953;28;20617;-71
2023/09/08 02:38:05;;;;;;;7.83;5.73;;;15.90;99.90;;;;;;5087754;28;20651;-71
2023/09/08 02:40:34;;;;;;;5.43;4.60;;;16.00;99.90;;;;;;5086684;28;20732;-71
2023/09/08 02:43:01;;;;;;;5.10;4.37;;;16.00;99.90;;;;;;5086918;28;20636;-71
2023/09/08 02:45:29;;;;;;;5.53;5.00;;;16.00;99.90;;;;;;5087978;28;20726;-71
2023/09/08 02:47:57;;;;;;;6.27;5.10;;;16.10;99.90;;;;;;5086953;28;20630;-72
2023/09/08 02:50:24;;;;;;;7.53;5.03;;;16.10;99.90;;;;;;5086695;28;20631;-72
2023/09/08 02:52:52;;;;;;;5.83;5.23;;;16.10;99.90;;;;;;5085819;28;20621;-71
2023/09/08 02:55:19;;;;;;;6.27;4.83;;;16.10;99.90;;;;;;5087459;28;21187;-71
2023/09/08 02:57:46;;;;;;;6.80;4.87;;;16.20;99.90;;;;;;5087567;28;20664;-72
2023/09/08 03:00:14;;;;;;;5.77;5.13;;;16.20;99.90;;;;;;5085973;28;21189;-72
2023/09/08 03:02:41;;;;;;;5.70;4.30;;;16.20;99.80;;;;;;5086166;28;20608;-71
2023/09/08 03:05:08;;;;;;;4.70;4.30;;;16.30;99.90;;;;;;5085760;28;21158;-71
2023/09/08 03:07:37;;;;;;;10.17;4.93;;;16.20;99.90;;;;;;5086084;28;20711;-71
2023/09/08 03:10:06;;;;;;;5.63;4.87;;;16.20;99.90;;;;;;5086354;28;20682;-72
2023/09/08 03:12:33;;;;;;;8.20;4.97;;;16.20;99.90;;;;;;5086530;28;21094;-72
2023/09/08 03:15:01;;;;;;;5.93;4.80;;;16.20;99.90;;;;;;5085815;28;20632;-72
2023/09/08 03:17:28;;;;;;;7.03;5.40;;;16.10;99.90;;;;;;5085450;28;20678;-71
2023/09/08 03:19:55;;;;;;;5.13;4.63;;;16.00;99.90;;;;;;5086426;28;20988;-71
2023/09/08 03:22:22;;;;;;;4.70;4.20;;;15.90;99.90;;;;;;5085899;28;21306;-71
2023/09/08 03:24:48;;;;;;;6.17;5.27;;;15.90;99.90;;;;;;5086265;28;20628;-71
2023/09/08 03:27:16;;;;;;;5.93;4.70;;;15.90;99.90;;;;;;5083906;28;21286;-71
2023/09/08 03:29:43;;;;;;;5.40;4.90;;;15.90;99.90;;;;;;5085381;28;20620;-71
2023/09/08 03:32:10;;;;;;;7.17;5.40;;;15.90;99.90;;;;;;5085170;28;20621;-72
2023/09/08 03:34:39;;;;;;;5.60;5.00;;;15.80;99.90;;;;;;5085476;28;21119;-71
2023/09/08 03:37:07;;;;;;;6.53;4.80;;;15.90;99.90;;;;;;5083774;28;21001;-71
2023/09/08 03:39:34;;;;;;;6.13;5.37;;;15.80;99.90;;;;;;5085126;28;20697;-71
2023/09/08 03:42:02;;;;;;;6.90;5.23;;;15.70;99.90;;;;;;5086180;28;20628;-71
2023/09/08 03:44:30;;;;;;;6.13;4.90;;;15.60;99.90;;;;;;5086215;28;20631;-71
2023/09/08 03:46:57;;;;;;;5.80;5.20;;;15.50;99.90;;;;;;5085869;28;20938;-71
2023/09/08 03:49:24;;;;;;;8.17;5.87;;;15.40;99.90;;;;;;5085309;28;20651;-70
2023/09/08 03:51:50;;;;;;;5.83;4.70;;;15.30;99.90;;;;;;5085858;28;20616;-71
2023/09/08 03:54:17;;;;;;;5.50;5.00;;;15.20;99.90;;;;;;5086131;28;20616;-71
2023/09/08 03:56:44;;;;;;;6.10;5.50;;;15.30;99.90;;;;;;5086420;28;20656;-71
2023/09/08 03:59:11;;;;;;;7.10;6.07;;;15.30;99.90;;;;;;5085944;28;20635;-71
2023/09/08 04:01:39;;;;;;;7.13;5.10;;;15.30;99.90;;;;;;5085622;28;20635;-71
2023/09/08 04:04:06;;;;;;;6.57;5.60;;;15.30;99.90;;;;;;5085838;28;20637;-71
2023/09/08 04:06:32;;;;;;;7.83;5.90;;;15.20;99.90;;;;;;5085719;28;20633;-71
2023/09/08 04:08:59;;;;;;;6.03;5.43;;;15.20;99.90;;;;;;5085966;28;20650;-71
2023/09/08 04:11:26;;;;;;;5.33;4.83;;;15.10;99.90;;;;;;5085259;28;21321;-71
2023/09/08 04:13:53;;;;;;;5.27;4.77;;;15.00;99.90;;;;;;5084651;28;21361;-71
2023/09/08 04:16:20;;;;;;;5.90;5.00;;;15.00;99.90;;;;;;5084206;28;21028;-72
2023/09/08 04:18:48;;;;;;;7.00;5.20;;;15.00;99.90;;;;;;5085924;28;20670;-72
2023/09/08 04:21:15;;;;;;;4.30;3.73;;;14.90;99.90;;;;;;5084978;28;21161;-72
2023/09/08 04:23:41;;;;;;;5.30;4.67;;;14.90;99.90;;;;;;5085141;28;20638;-72
2023/09/08 04:26:08;;;;;;;8.70;5.60;;;14.90;99.90;;;;;;5085505;28;20632;-72
2023/09/08 04:28:35;;;;;;;6.07;5.47;;;15.00;99.90;;;;;;5085491;28;20633;-72
2023/09/08 04:31:02;;;;;;;6.03;5.27;;;14.90;99.90;;;;;;5085232;28;21058;-72
2023/09/08 04:33:29;;;;;;;6.50;4.93;;;14.90;99.90;;;;;;5085603;28;21051;-72
2023/09/08 04:35:57;;;;;;;5.97;4.90;;;14.90;99.90;;;;;;5085571;28;20621;-72
2023/09/08 04:38:24;;;;;;;6.07;4.57;;;14.90;99.90;;;;;;5088463;28;20652;-72
2023/09/08 04:40:50;;;;;;;5.80;5.20;;;14.90;99.90;;;;;;5089099;28;21071;-71
2023/09/08 04:43:17;;;;;;;6.17;5.57;;;14.90;99.90;;;;;;5088959;28;20626;-71
2023/09/08 04:45:44;;;;;;;9.60;6.20;;;14.90;99.90;;;;;;5089081;28;20662;-72
2023/09/08 04:48:11;;;;;;;6.17;5.57;;;14.90;99.90;;;;;;5088885;28;20987;-71
2023/09/08 04:50:37;;;;;;;6.93;4.87;;;14.80;99.90;;;;;;5088309;28;21312;-71
2023/09/08 04:53:07;;;;;;;7.13;5.20;;;14.80;99.90;;;;;;5088208;28;21190;-71
2023/09/08 04:55:33;;;;;;;14.13;6.07;;;14.90;99.90;;;;;;5088966;28;20823;-71
2023/09/08 04:58:00;;;;;;;6.40;5.60;;;14.80;99.90;;;;;;5088346;28;20655;-72
2023/09/08 05:00:27;;;;;;;7.53;5.80;;;14.70;99.90;;;;;;5088038;28;20632;-72
2023/09/08 05:02:54;;;;;;;5.73;5.20;;;14.70;99.90;;;;;;5088172;28;20631;-72
2023/09/08 05:05:20;;;;;;;7.07;5.80;;;14.80;99.90;;;;;;5088638;28;20631;-72
2023/09/08 05:07:47;;;;;;;7.03;6.33;;;14.80;99.90;;;;;;5088740;28;20635;-70
2023/09/08 05:10:16;;;;;;;6.57;5.53;;;14.80;99.90;;;;;;5087535;28;20637;-70
2023/09/08 05:12:43;;;;;;;7.50;5.63;;;14.80;99.90;;;;;;5088419;28;20631;-71
2023/09/08 05:15:14;;;;;;;6.80;5.40;;;14.70;99.90;;;;;;5087160;28;21772;-71
2023/09/08 05:17:41;;;;;;;7.47;5.30;;;14.60;99.90;;;;;;5087135;28;21666;-71
2023/09/08 05:20:09;;;;;;;7.13;5.50;;;14.60;99.90;;;;;;5087946;28;20658;-70
2023/09/08 05:22:37;;;;;;;6.10;5.30;;;14.70;99.90;;;;;;5088044;28;20960;-70
2023/09/08 05:25:04;;;;;;;8.17;5.37;;;14.70;99.90;;;;;;5086753;28;20945;-70
2023/09/08 05:27:32;;;;;;;8.50;6.03;;;14.80;99.90;;;;;;5086666;28;20728;-71
2023/09/08 05:29:59;;;;;;;7.87;5.73;;;14.80;99.90;;;;;;5086798;28;20626;-71
2023/09/08 05:32:26;;;;;;;6.93;6.23;;;14.80;99.90;;;;;;5086553;28;20749;-72
2023/09/08 05:34:55;;;;;;;6.57;4.90;;;14.90;99.90;;;;;;5088288;28;21189;-70
2023/09/08 05:37:22;;;;;;;8.83;5.13;;;15.00;99.90;;;;;;5086749;28;20658;-71
2023/09/08 05:39:49;;;;;;;6.00;5.27;;;15.10;99.90;;;;;;5086775;28;21260;-70
2023/09/08 05:42:16;;;;;;;7.57;5.97;;;15.10;99.90;;;;;;5088533;28;20609;-71
2023/09/08 05:44:45;;;;;;;6.87;5.13;;;15.30;99.90;;;;;;5086323;28;20953;-72
2023/09/08 05:47:15;;;;;;;7.40;5.83;;;15.40;99.90;;;;;;5079527;28;20713;-71
2023/09/08 05:49:41;;;;;;;8.20;7.07;;;15.50;99.90;;;;;;5084530;28;21008;-72
2023/09/08 05:52:08;;;;;;;9.97;6.53;;;15.60;99.90;;;;;;5086261;28;20977;-71
2023/09/08 05:54:35;;;;;;;6.83;6.17;;;15.60;99.90;;;;;;5087473;28;21751;-71
2023/09/08 05:57:02;;;;;;;7.10;6.40;;;15.60;99.90;;;;;;5086334;28;20631;-71
2023/09/08 05:59:28;;;;;;;7.00;6.30;;;15.70;99.90;;;;;;5086721;28;20664;-72
2023/09/08 06:01:57;;;;;;;6.70;5.73;;;15.70;99.90;;;;;;5086756;28;20616;-72
2023/09/08 06:04:23;;;;;;;6.97;5.20;;;15.80;99.90;;;;;;5086285;28;21206;-72
2023/09/08 06:06:50;;;;;;;7.70;7.00;;;15.90;99.90;;;;;;5086748;28;22370;-72
2023/09/08 06:09:17;;;;;;;9.43;8.00;;;16.10;99.90;;;;;;5086973;28;20636;-73
2023/09/08 06:11:44;;;;;;;8.60;6.83;;;16.30;99.90;;;;;;5086518;28;20639;-71
2023/09/08 06:14:11;;;;;;;8.17;6.90;;;16.30;99.90;;;;;;5083260;28;21007;-72
2023/09/08 06:16:38;;;;;;;8.87;6.97;;;16.40;99.90;;;;;;5086668;28;20716;-72
2023/09/08 06:19:06;;;;;;;9.00;6.43;;;16.40;99.90;;;;;;5084390;28;20671;-72
2023/09/08 06:21:33;;;;;;;7.63;6.60;;;16.40;99.90;;;;;;5084410;28;21796;-72
2023/09/08 06:24:00;;;;;;;6.40;5.80;;;16.50;99.90;;;;;;5084966;28;20661;-72
2023/09/08 06:26:27;;;;;;;8.90;8.00;;;16.60;99.90;;;;;;5084159;28;21294;-71
2023/09/08 06:28:53;;;;;;;11.90;8.90;;;16.70;99.90;;;;;;5084894;28;20970;-72
2023/09/08 06:31:20;;;;;;;11.33;8.50;;;16.90;99.90;;;;;;5085428;28;20620;-72
2023/09/08 06:33:48;;;;;;;8.00;7.03;;;17.00;99.90;;;;;;5085305;28;20628;-72
2023/09/08 06:36:16;;;;;;;9.90;8.07;;;17.20;99.90;;;;;;5086261;28;20634;-72
2023/09/08 06:38:43;;;;;;;10.07;7.93;;;17.30;99.90;;;;;;5084546;27;20653;-72
2023/09/08 06:41:11;;;;;;;9.03;7.97;;;17.40;99.90;;;;;;5086295;28;20649;-72
2023/09/08 06:43:38;;;;;;;8.43;7.43;;;17.50;99.90;;;;;;5086703;28;20632;-72
2023/09/08 06:46:05;;;;;;;8.07;6.90;;;17.60;99.90;;;;;;5087553;28;20623;-72
2023/09/08 06:48:32;;;;;;;7.57;6.73;;;17.70;99.90;;;;;;5085363;28;20640;-72
2023/09/08 06:50:59;;;;;;;8.03;5.80;;;17.90;99.90;;;;;;5086405;28;20635;-72
2023/09/08 06:53:27;;;;;;;7.27;6.57;;;18.00;99.90;;;;;;5085660;28;20776;-72
2023/09/08 06:55:53;;;;;;;7.83;6.50;;;18.00;99.90;;;;;;5086476;28;20651;-72
2023/09/08 06:58:20;;;;;;;6.70;5.90;;;18.20;99.90;;;;;;5086513;28;20652;-72
2023/09/08 07:00:49;;;;;;;7.40;6.60;;;18.20;99.90;;;;;;5084929;28;21207;-72
2023/09/08 07:03:16;;;;;;;8.10;6.37;;;18.40;99.90;;;;;;5080718;28;21274;-72
2023/09/08 07:05:43;;;;;;;9.57;7.77;;;18.50;99.90;;;;;;5085232;28;21095;-72
2023/09/08 07:08:09;;;;;;;7.23;6.43;;;18.70;99.90;;;;;;5084729;28;21279;-72
2023/09/08 07:10:37;;;;;;;8.20;6.73;;;18.70;99.90;;;;;;5084975;28;20643;-73
2023/09/08 07:13:04;;;;;;;7.40;6.57;;;18.90;99.90;;;;;;5078528;28;21220;-72
2023/09/08 07:15:31;;;;;;;6.53;5.97;;;19.00;99.90;;;;;;5081878;28;20628;-72
2023/09/08 07:17:58;;;;;;;7.57;6.67;;;19.10;99.90;;;;;;5083807;28;20659;-72
2023/09/08 07:20:25;;;;;;;9.03;6.50;;;19.20;99.90;;;;;;5083896;28;20975;-72
2023/09/08 07:22:52;;;;;;;7.07;6.10;;;19.30;99.90;;;;;;5085066;28;20617;-72
2023/09/08 07:25:19;;;;;;;7.57;6.77;;;19.50;99.90;;;;;;5080892;28;21263;-72
2023/09/08 07:27:47;;;;;;;6.43;5.80;;;19.60;99.70;;;;;;5083738;28;20635;-73
2023/09/08 07:30:17;;;;;;;7.20;6.50;;;19.80;99.50;;;;;;5082826;28;20636;-72
2023/09/08 07:32:44;;;;;;;10.20;7.17;;;19.90;99.40;;;;;;5083426;28;20721;-73
2023/09/08 07:35:16;;;;;;;8.07;6.53;;;19.90;99.30;;;;;;5084599;28;20636;-72
2023/09/08 07:37:43;;;;;;;7.53;6.77;;;19.90;99.40;;;;;;5086421;28;20636;-72
2023/09/08 07:40:11;;;;;;;6.37;5.70;;;20.00;99.30;;;;;;5083452;28;20628;-73
2023/09/08 07:42:38;;;;;;;7.03;6.33;;;20.10;99.60;;;;;;5082594;28;20632;-72
2023/09/08 07:45:09;;;;;;;8.83;7.93;;;20.30;99.30;;;;;;5082023;28;20621;-72
2023/09/08 07:47:38;;;;;;;8.33;6.40;;;20.50;98.60;;;;;;5077989;28;20712;-72
2023/09/08 07:50:19;;;;;;;16.43;8.10;;;20.70;98.80;;;;;;5083170;28;20626;-70
2023/09/08 07:52:46;;;;;;;10.80;6.10;;;20.70;98.20;;;;;;5084824;28;20625;-72
2023/09/08 07:55:13;;;;;;;8.20;6.50;;;20.70;98.60;;;;;;5082634;28;20642;-72
2023/09/08 07:57:40;;;;;;;8.97;6.80;;;20.80;98.80;;;;;;5083471;28;20628;-73
2023/09/08 08:00:11;;;;;;;7.03;6.43;;;20.80;98.40;;;;;;5083216;28;21174;-71
2023/09/08 08:02:38;;;;;;;14.53;6.70;;;20.90;98.30;;;;;;5084544;28;20985;-71
2023/09/08 08:05:05;;;;;;;7.00;6.40;;;21.00;98.40;;;;;;5083977;28;20636;-71
2023/09/08 08:07:35;;;;;;;7.23;5.90;;;21.10;98.50;;;;;;5084585;28;21011;-71
2023/09/08 08:10:02;;;;;;;9.87;6.47;;;21.10;98.40;;;;;;5082977;28;20628;-72
2023/09/08 08:12:29;;;;;;;6.33;5.73;;;21.30;98.30;;;;;;5081305;28;20719;-71
2023/09/08 08:14:56;;;;;;;6.83;6.23;;;21.60;97.60;;;;;;5076964;28;20750;-72
2023/09/08 08:17:24;;;;;;;9.23;6.90;;;21.60;97.60;;;;;;5082452;28;21150;-72
2023/09/08 08:19:51;;;;;;;7.57;6.87;;;21.60;97.90;;;;;;5082896;28;20665;-72
2023/09/08 08:22:17;;;;;;;8.03;6.47;;;21.60;97.80;;;;;;5084607;28;20632;-72
2023/09/08 08:24:45;;;;;;;6.77;6.10;;;21.70;98.00;;;;;;5084146;28;21593;-72
2023/09/08 08:27:12;;;;;;;7.23;6.53;;;22.00;97.00;;;;;;5084931;28;20631;-72
2023/09/08 08:29:40;;;;;;;7.57;6.57;;;22.20;97.00;;;;;;5083442;28;21044;-72
2023/09/08 08:32:07;;;;;;;6.77;6.17;;;22.30;96.70;;;;;;5083951;28;21479;-72
2023/09/08 08:34:35;;;;;;;7.37;6.10;;;22.50;96.50;;;;;;5084793;28;20634;-72
2023/09/08 08:37:03;;;;;;;9.60;6.67;;;22.60;96.40;;;;;;5085289;28;20981;-72
2023/09/08 08:39:29;;;;;;;7.00;6.30;;;22.70;96.00;;;;;;5084326;28;20659;-72
2023/09/08 08:41:56;;;;;;;7.20;6.57;;;22.70;96.10;;;;;;5084661;28;20631;-72
2023/09/08 08:44:25;;;;;;;7.53;6.50;;;22.60;96.20;;;;;;5081178;28;20635;-72
2023/09/08 08:46:52;;;;;;;7.70;6.77;;;22.80;96.10;;;;;;5082177;28;20628;-72
2023/09/08 08:49:20;;;;;;;6.40;5.90;;;22.90;95.80;;;;;;5083225;28;20622;-71
2023/09/08 08:51:50;;;;;;;6.03;5.43;;;23.00;95.60;;;;;;5083365;28;20735;-71
2023/09/08 08:54:17;;;;;;;6.20;5.50;;;23.10;95.40;;;;;;5084057;28;21199;-72
2023/09/08 08:56:44;;;;;;;7.03;6.33;;;23.20;95.50;;;;;;5083821;28;21203;-72
2023/09/08 08:59:12;;;;;;;6.43;5.93;;;23.30;94.80;;;;;;5084346;28;20647;-73
2023/09/08 09:01:42;;;;;;;6.97;5.73;;;23.50;94.40;;;;;;5083303;28;21212;-72
2023/09/08 09:04:10;;;;;;;7.23;5.90;;;23.60;94.70;;;;;;5084311;28;20629;-71
2023/09/08 09:06:37;;;;;;;6.57;6.00;;;23.50;95.20;;;;;;5083245;28;20625;-72
2023/09/08 09:09:07;;;;;;;6.47;5.83;;;23.40;95.10;;;;;;5083316;28;20643;-71
2023/09/08 09:11:34;;;;;;;6.73;5.63;;;23.60;94.20;;;;;;5084536;28;20638;-71
2023/09/08 09:14:02;;;;;;;8.10;5.67;;;23.70;94.90;;;;;;5083194;28;20630;-72
2023/09/08 09:16:29;;;;;;;7.63;6.83;;;23.90;94.70;;;;;;5083176;28;20627;-71
2023/09/08 09:18:57;;;;;;;8.40;6.33;;;24.00;93.60;;;;;;5083074;28;20659;-72
2023/09/08 09:21:24;;;;;;;6.60;6.00;;;24.00;93.30;;;;;;5083552;28;20626;-72
2023/09/08 09:23:51;;;;;;;7.60;6.87;;;24.10;93.80;;;;;;5087345;28;20626;-71
2023/09/08 09:26:27;;;;;;;5.83;5.30;;;24.20;93.20;;;;;;5088490;28;20627;-71
2023/09/08 09:28:54;;;;;;;6.87;6.17;;;24.20;93.60;;;;;;5087645;28;20639;-72
2023/09/08 09:31:25;;;;;;;7.40;6.70;;;24.30;93.40;;;;;;5086974;28;20661;-72
2023/09/08 09:34:04;;;;;;;7.43;6.77;;;24.40;93.00;;;;;;5087257;28;20630;-71
2023/09/08 09:36:31;;;;;;;7.20;6.50;;;24.50;92.80;;;;;;5087766;28;20645;-72
2023/09/08 09:39:00;;;;;;;7.00;6.33;;;24.60;92.20;;;;;;5088006;28;20660;-72
2023/09/08 09:41:30;;;;;;;8.07;7.27;;;24.70;92.10;;;;;;5087687;28;20643;-72
2023/09/08 09:43:57;;;;;;;7.67;6.57;;;24.80;92.80;;;;;;5088154;28;21271;-71
2023/09/08 09:46:23;;;;;;;6.87;5.80;;;24.80;92.30;;;;;;5088323;28;20905;-72
2023/09/08 09:48:56;;;;;;;7.23;6.37;;;24.70;93.00;;;;;;5087445;28;20645;-72
2023/09/08 09:51:23;;;;;;;5.73;5.23;;;24.70;92.80;;;;;;5087127;28;20652;-72
2023/09/08 09:53:54;;;;;;;8.23;7.53;;;24.90;92.60;;;;;;5086677;28;20679;-72
2023/09/08 09:56:23;;;;;;;7.73;6.93;;;24.90;92.70;;;;;;5087268;28;20622;-72
2023/09/08 09:58:54;;;;;;;8.37;6.43;;;25.00;91.70;;;;;;5086928;28;21211;-71
2023/09/08 10:01:23;;;;;;;7.33;6.63;;;25.00;92.10;;;;;;5085078;28;20630;-72
2023/09/08 10:03:51;;;;;;;6.73;6.13;;;25.10;91.80;;;;;;5087078;28;20630;-72
2023/09/08 10:06:20;;;;;;;7.30;5.57;;;25.20;92.50;;;;;;5087573;28;21373;-72
2023/09/08 10:08:47;;;;;;;7.50;6.80;;;25.30;92.20;;;;;;5087446;28;20643;-71
2023/09/08 10:11:15;;;;;;;7.80;6.70;;;25.50;91.00;;;;;;5085804;28;20855;-72
2023/09/08 10:13:47;;;;;;;7.00;6.40;;;25.60;91.00;;;;;;5087356;28;20659;-72
2023/09/08 10:16:20;;;;;;;6.33;5.73;;;25.70;90.40;;;;;;5085838;28;20627;-72
2023/09/08 10:18:50;;;;;;;6.87;6.13;;;25.60;91.30;;;;;;5085069;28;20667;-72
2023/09/08 10:21:18;;;;;;;7.30;6.60;;;25.80;91.20;;;;;;5086351;28;20885;-71
2023/09/08 10:23:54;;;;;;;6.30;5.80;;;25.80;90.20;;;;;;5086553;28;20635;-71
2023/09/08 10:26:27;;;;;;;7.03;6.13;;;25.80;91.70;;;;;;5086623;28;20632;-71
2023/09/08 10:28:56;;;;;;;7.47;6.40;;;25.90;90.00;;;;;;5085261;28;21232;-72
2023/09/08 10:31:27;;;;;;;6.73;5.90;;;26.00;90.70;;;;;;5085041;28;20624;-72
2023/09/08 10:33:54;;;;;;;7.23;6.53;;;26.20;90.70;;;;;;5085853;28;20633;-72
2023/09/08 10:36:21;;;;;;;6.90;6.20;;;26.20;89.50;;;;;;5086511;28;20627;-71
2023/09/08 10:38:50;;;;;;;6.70;6.10;;;26.20;88.70;;;;;;5086166;28;20651;-72
2023/09/08 10:41:31;;;;;;;6.87;6.20;;;26.20;89.40;;;;;;5084714;28;21723;-71
2023/09/08 10:44:02;;;;;;;6.90;6.17;;;26.30;90.00;;;;;;5086999;28;21173;-71
2023/09/08 10:46:32;;;;;;;7.50;6.80;;;26.40;88.70;;;;;;5087248;28;20654;-71
2023/09/08 10:49:03;;;;;;;7.67;6.97;;;26.50;89.70;;;;;;5087119;28;20821;-71
2023/09/08 10:51:30;;;;;;;7.53;6.30;;;26.50;88.30;;;;;;5086762;28;20634;-72
2023/09/08 10:53:57;;;;;;;7.47;6.77;;;26.60;89.80;;;;;;5085759;28;22317;-71
2023/09/08 10:56:29;;;;;;;8.80;7.90;;;26.50;87.90;;;;;;5085246;28;20800;-72
2023/09/08 10:58:56;;;;;;;6.70;6.10;;;26.70;86.40;;;;;;5087092;28;20667;-72
2023/09/08 11:01:26;;;;;;;7.50;6.80;;;26.90;85.70;;;;;;5084089;28;20621;-72
2023/09/08 11:03:54;;;;;;;7.30;6.57;;;26.80;85.40;;;;;;5086894;28;20644;-71
2023/09/08 11:06:23;;;;;;;5.43;4.93;;;27.00;84.70;;;;;;5086940;28;20628;-71
2023/09/08 11:08:52;;;;;;;8.80;6.40;;;26.80;86.60;;;;;;5083355;28;20648;-71
2023/09/08 11:11:19;;;;;;;7.73;6.97;;;26.80;87.00;;;;;;5084691;28;21128;-71
2023/09/08 11:13:46;;;;;;;7.60;6.87;;;26.90;87.20;;;;;;5084418;28;20641;-71
2023/09/08 11:16:15;;;;;;;7.00;6.40;;;27.10;85.40;;;;;;5086422;28;21189;-72
2023/09/08 11:18:42;;;;;;;8.50;7.63;;;27.20;84.30;;;;;;5086816;28;20625;-71
2023/09/08 11:21:11;;;;;;;6.90;6.20;;;27.10;85.20;;;;;;5084544;28;20631;-71
2023/09/08 11:23:39;;;;;;;9.47;6.80;;;27.10;86.20;;;;;;5084932;28;20628;-71
2023/09/08 11:26:08;;;;;;;7.07;6.47;;;27.10;84.90;;;;;;5084862;28;20623;-72
2023/09/08 11:28:35;;;;;;;8.90;7.37;;;27.10;84.90;;;;;;5085341;28;20628;-71
2023/09/08 11:31:04;;;;;;;7.10;6.40;;;27.00;84.50;;;;;;5085140;28;21211;-71
2023/09/08 11:33:38;;;;;;;8.20;6.50;;;27.30;84.90;;;;;;5086098;28;20727;-72
2023/09/08 11:36:15;;;;;;;7.63;6.87;;;27.40;84.90;;;;;;5085851;28;21203;-71
2023/09/08 11:38:44;;;;;;;6.23;5.70;;;27.90;81.50;;;;;;5084602;28;20635;-72
2023/09/08 11:41:11;;;;;;;7.63;5.97;;;27.50;81.30;;;;;;5084742;28;20687;-72
2023/09/08 11:43:38;;;;;;;6.23;5.70;;;27.70;84.40;;;;;;5085283;28;20982;-70
2023/09/08 11:46:05;;;;;;;7.03;6.33;;;27.80;82.60;;;;;;5085139;28;21196;-72
2023/09/08 11:48:32;;;;;;;6.57;5.90;;;28.10;79.10;;;;;;5084860;28;20635;-71
2023/09/08 11:50:59;;;;;;;6.10;5.50;;;27.80;79.60;;;;;;5083959;28;20628;-72
2023/09/08 11:53:28;;;;;;;6.53;5.90;;;27.70;81.00;;;;;;5085206;28;21227;-71
2023/09/08 11:55:55;;;;;;;6.30;5.70;;;27.60;82.70;;;;;;5085478;28;21188;-72
2023/09/08 11:58:23;;;;;;;7.63;6.40;;;27.60;81.80;;;;;;5083218;28;20628;-72
2023/09/08 12:00:51;;;;;;;6.20;5.60;;;27.60;80.40;;;;;;5085956;28;20643;-72
2023/09/08 12:03:18;;;;;;;6.97;6.37;;;27.70;80.90;;;;;;5084564;28;20624;-72
2023/09/08 12:05:51;;;;;;;6.50;5.90;;;27.50;81.00;;;;;;5085403;28;20988;-72
2023/09/08 12:08:18;;;;;;;7.00;6.40;;;27.40;81.60;;;;;;5085038;28;20639;-72
2023/09/08 12:10:46;;;;;;;6.67;6.07;;;27.30;80.50;;;;;;5084502;28;20616;-71
2023/09/08 12:13:13;;;;;;;6.93;6.23;;;27.30;81.30;;;;;;5085606;28;20623;-72
2023/09/08 12:15:42;;;;;;;8.50;6.93;;;27.50;80.90;;;;;;5083187;28;21232;-72
2023/09/08 12:18:10;;;;;;;8.57;7.70;;;27.50;79.40;;;;;;5085249;28;20628;-72
2023/09/08 12:20:39;;;;;;;12.20;6.23;;;27.50;81.00;;;;;;5084787;28;20663;-72
2023/09/08 12:23:08;;;;;;;7.00;5.77;;;27.40;79.70;;;;;;5085411;28;20642;-72
2023/09/08 12:25:47;;;;;;;6.60;6.00;;;27.40;81.70;;;;;;5083074;28;20689;-72
2023/09/08 12:28:14;;;;;;;7.73;5.93;;;27.50;81.80;;;;;;5084601;28;20979;-71
2023/09/08 12:30:42;;;;;;;7.37;6.77;;;27.30;81.60;;;;;;5083381;28;20620;-71
2023/09/08 12:33:09;;;;;;;11.20;6.53;;;27.10;81.00;;;;;;5084768;28;21057;-72
2023/09/08 12:35:36;;;;;;;6.67;6.07;;;27.20;82.00;;;;;;5084791;28;20639;-72
2023/09/08 12:38:05;;;;;;;7.07;6.40;;;27.20;81.90;;;;;;5085852;28;20631;-71
2023/09/08 12:40:35;;;;;;;7.43;6.73;;;27.40;81.70;;;;;;5083987;28;20748;-71
2023/09/08 12:43:03;;;;;;;7.17;6.47;;;27.40;80.70;;;;;;5079542;28;20627;-71
2023/09/08 12:45:31;;;;;;;6.97;6.37;;;27.40;80.50;;;;;;5082972;28;20637;-72
2023/09/08 12:48:01;;;;;;;8.60;7.80;;;27.30;80.30;;;;;;5083016;28;20636;-72
2023/09/08 12:50:28;;;;;;;8.40;7.50;;;27.30;81.00;;;;;;5083993;28;20643;-72